Flight Track Log - Related Links

Times and Time Zones

All times are in EDT time to prevent confusion due to time zone crossing. See the N349CD flight status page for this flight to view local times or setup timezone preferences in your user account.

Time Position Orientation Groundspeed Altitude Reporting Facility
EDT Latitude Longitude Course Direction KTS MPH feet Rate Location/Type
Tue 02:21:14 PM 29.1492 -82.1008 131° Southeast 151 174 2,200  Level Jacksonville Center
Tue 02:22:15 PM 29.1364 -82.0511 106° East 159 183 2,800 492 Climbing Jacksonville Center
Tue 02:23:16 PM 29.1236 -82.0058 108° East 161 185 3,200 492 Climbing Jacksonville Center
Tue 02:24:17 PM 29.1108 -81.9586 107° East 148 170 3,800 590 Climbing Jacksonville Center
Tue 02:25:18 PM 29.1000 -81.9111 105° East 147 169 4,400 492 Climbing Jacksonville Center
Tue 02:26:00 PM 29.0413 -82.0368 131° Southeast  Level Estimated
Tue 02:26:19 PM 29.0850 -81.8661 111° Southeast 149 171 4,800  Level Jacksonville Center
Tue 02:27:20 PM 29.0761 -81.8186 102° East 148 170 5,100 98 Climbing Jacksonville Center
Tue 02:28:21 PM 29.0611 -81.7689 109° East 161 185 5,000 -49 Descending Jacksonville Center
Tue 02:29:22 PM 29.0339 -81.7361 134° Southeast 151 174 5,000 49 Level Jacksonville Center
Tue 02:30:23 PM 29.0003 -81.7103 146° Southeast 141 162 5,100 -114 Climbing Jacksonville Center
Tue 02:32:52 PM 28.9167 -81.6333 141° Southeast 155 178 4,600 -287 Descending Orlando TRACON
Tue 02:33:52 PM 28.8833 -81.6000 139° Southeast 164 189 4,100 -800 Descending Orlando TRACON
Tue 02:34:52 PM 28.8500 -81.5667 139° Southeast 170 196 3,000 -744 Descending Orlando TRACON
Tue 02:35:53 PM 28.8167 -81.5333 139° Southeast 176 203 2,600 -248 Descending Orlando TRACON
Tue 02:36:53 PM 28.7833 -81.5000 139° Southeast 159 183 2,500  Descending Orlando TRACON
Tue 02:37:53 PM 28.7333 -81.4667 150° Southeast 161 185 2,600 50 Climbing Orlando TRACON
Tue 02:38:53 PM 28.7000 -81.4333 139° Southeast 156 180 2,600 -50 Level Orlando TRACON
Tue 02:39:53 PM 28.6667 -81.4000 139° Southeast 164 189 2,500 -400 Descending Orlando TRACON
Tue 02:40:53 PM 28.6333 -81.3667 139° Southeast 180 207 1,800 -545 Descending Orlando TRACON
Tue 02:41:54 PM 28.6000 -81.3333 139° Southeast 170 196 1,400 -397 Descending Orlando TRACON
Tue 02:42:54 PM 28.5667 -81.3000 139° Southeast 142 163 1,000 -400 Descending Orlando TRACON
Tue 02:43:54 PM 28.5500 -81.3167 221° Southwest 78 90 600 -400 Descending Orlando TRACON
Tue 02:45:00 PM 28.5333 -81.3167 142° Southeast  Level FlightAware Approximate
Tue 02:52:00 PM 28.5455 -81.3329 310° West  Level Estimated
Tue 02:53:00 PM 28.5455 -81.3329 142° Southeast  Level Estimated

Login

Don't have an account? Register now (free) for customized features, flight alerts, and more!